Time;durP1;ratioP1;P1;durP2;ratioP2;P2;SDS_P1;SDS_P2;PMS_P1;PMS_P2;Temp;Humidity;BMP_temperature;BMP_pressure;BME280_temperature;BME280_humidity;BME280_pressure;Samples;Min_cycle;Max_cycle;Signal;HPM_P1;HPM_P2
2023/10/13 00:01:04;;;;;;;3.67;1.92;;;;;;;;;;4973673;28;20046;-71
2023/10/13 00:03:31;;;;;;;3.08;1.88;;;;;;;;;;4977112;28;20484;-71
2023/10/13 00:06:02;;;;;;;3.72;1.95;;;;;;;;;;4978095;28;20062;-71
2023/10/13 00:08:29;;;;;;;2.70;1.75;;;;;;;;;;4976720;28;20038;-72
2023/10/13 00:10:59;;;;;;;6.63;2.20;;;;;;;;;;4961718;28;20105;-72
2023/10/13 00:13:26;;;;;;;4.47;1.95;;;;;;;;;;4977930;28;20054;-72
2023/10/13 00:15:57;;;;;;;4.47;1.70;;;;;;;;;;4977352;28;20709;-73
2023/10/13 00:18:41;;;;;;;4.03;1.50;;;;;;;;;;4978584;28;20050;-73
2023/10/13 00:21:14;;;;;;;4.30;1.80;;;;;;;;;;4977429;28;20046;-73
2023/10/13 00:23:54;;;;;;;4.55;1.77;;;;;;;;;;4976597;28;20053;-72
2023/10/13 00:26:28;;;;;;;7.60;2.33;;;;;;;;;;4977092;28;20046;-73
2023/10/13 00:31:42;;;;;;;6.25;1.88;;;;;;;;;;4959969;28;20054;-73
2023/10/13 00:34:19;;;;;;;4.97;1.70;;;;;;;;;;4960319;28;20054;-73
2023/10/13 00:39:29;;;;;;;5.30;1.80;;;;;;;;;;4976671;28;20046;-74
2023/10/13 00:41:59;;;;;;;3.90;1.65;;;;;;;;;;4978750;28;20053;-74
2023/10/13 00:44:43;;;;;;;6.20;1.95;;;;;;;;;;4976781;28;20046;-74
2023/10/13 00:47:16;;;;;;;9.45;1.80;;;;;;;;;;4977024;28;20046;-74
2023/10/13 00:49:47;;;;;;;7.07;1.63;;;;;;;;;;4977267;28;20065;-74
2023/10/13 00:52:15;;;;;;;5.22;1.95;;;;;;;;;;4960862;28;20097;-75
2023/10/13 00:54:45;;;;;;;3.67;1.63;;;;;;;;;;4978596;28;20600;-75
2023/10/13 00:57:29;;;;;;;5.28;2.13;;;;;;;;;;4980264;28;20100;-75
2023/10/13 00:59:56;;;;;;;5.55;1.60;;;;;;;;;;4981839;28;20054;-75
2023/10/13 01:05:11;;;;;;;4.28;1.63;;;;;;;;;;4979998;28;21005;-75
2023/10/13 01:07:37;;;;;;;5.85;1.85;;;;;;;;;;4978185;28;20070;-72
2023/10/13 01:10:13;;;;;;;7.50;1.70;;;;;;;;;;4996898;28;20120;-72
2023/10/13 01:12:38;;;;;;;7.22;1.95;;;;;;;;;;4981970;28;20093;-72
2023/10/13 01:15:07;;;;;;;8.20;2.10;;;;;;;;;;4980618;28;20042;-74
2023/10/13 01:17:33;;;;;;;6.65;1.95;;;;;;;;;;4995942;28;20046;-71
2023/10/13 01:19:59;;;;;;;2.65;1.70;;;;;;;;;;4995946;28;20510;-72
2023/10/13 01:22:27;;;;;;;7.90;1.65;;;;;;;;;;4979759;28;20049;-71
2023/10/13 01:25:04;;;;;;;3.63;1.60;;;;;;;;;;4995606;28;20069;-71
2023/10/13 01:27:29;;;;;;;4.40;1.67;;;;;;;;;;4962086;28;20046;-71
2023/10/13 01:30:05;;;;;;;4.30;1.55;;;;;;;;;;4979934;28;20411;-71
2023/10/13 01:32:31;;;;;;;6.88;1.98;;;;;;;;;;4977908;28;20061;-72
2023/10/13 01:35:04;;;;;;;3.22;1.33;;;;;;;;;;4979584;28;20046;-72
2023/10/13 01:37:30;;;;;;;6.00;1.80;;;;;;;;;;4993297;28;20656;-72
2023/10/13 01:39:55;;;;;;;3.13;1.85;;;;;;;;;;4979285;28;20058;-72
2023/10/13 01:42:21;;;;;;;2.88;1.50;;;;;;;;;;4979277;28;20156;-72
2023/10/13 01:44:47;;;;;;;3.05;1.50;;;;;;;;;;4979420;28;20042;-74
2023/10/13 01:47:13;;;;;;;4.63;1.92;;;;;;;;;;4961509;28;20145;-72
2023/10/13 01:49:42;;;;;;;3.55;1.67;;;;;;;;;;4979256;28;20050;-73
2023/10/13 01:52:12;;;;;;;6.10;1.83;;;;;;;;;;4978437;28;20065;-73
2023/10/13 01:54:40;;;;;;;7.18;2.08;;;;;;;;;;4980264;28;20046;-72
2023/10/13 01:57:13;;;;;;;5.78;1.65;;;;;;;;;;4979179;28;20046;-72
2023/10/13 01:59:43;;;;;;;8.55;1.50;;;;;;;;;;4979570;28;20038;-72
2023/10/13 02:02:13;;;;;;;2.38;1.20;;;;;;;;;;4978251;28;20060;-72
2023/10/13 02:04:48;;;;;;;7.85;1.50;;;;;;;;;;4964175;28;20041;-72
2023/10/13 02:07:16;;;;;;;3.17;1.75;;;;;;;;;;4977035;28;20050;-73
2023/10/13 02:09:42;;;;;;;4.07;1.80;;;;;;;;;;4980709;28;20132;-74
2023/10/13 02:12:09;;;;;;;4.95;1.45;;;;;;;;;;4977955;28;20054;-75
2023/10/13 02:14:38;;;;;;;2.70;1.67;;;;;;;;;;4980586;28;20050;-73
2023/10/13 02:17:13;;;;;;;3.35;1.83;;;;;;;;;;4978668;28;20137;-74
2023/10/13 02:19:43;;;;;;;6.72;1.85;;;;;;;;;;4993221;28;20046;-74
2023/10/13 02:22:10;;;;;;;4.65;1.80;;;;;;;;;;4977971;28;20160;-75
2023/10/13 02:24:39;;;;;;;3.08;1.48;;;;;;;;;;4980267;28;20577;-75
2023/10/13 02:27:13;;;;;;;5.88;2.00;;;;;;;;;;4986453;28;20047;-75
2023/10/13 02:29:45;;;;;;;6.82;2.25;;;;;;;;;;4978652;28;21079;-75
2023/10/13 02:32:18;;;;;;;5.15;1.90;;;;;;;;;;4979878;28;20043;-75
2023/10/13 02:34:44;;;;;;;6.57;2.15;;;;;;;;;;4947214;28;20053;-75
2023/10/13 02:37:11;;;;;;;2.15;1.60;;;;;;;;;;4982488;28;20046;-73
2023/10/13 02:39:41;;;;;;;8.50;1.70;;;;;;;;;;4978091;28;20133;-74
2023/10/13 02:42:07;;;;;;;5.10;2.05;;;;;;;;;;4978357;28;20459;-73
2023/10/13 02:44:36;;;;;;;3.53;1.80;;;;;;;;;;4979318;28;20133;-73
2023/10/13 02:47:13;;;;;;;7.40;1.92;;;;;;;;;;4978190;28;20515;-73
2023/10/13 02:49:42;;;;;;;4.85;1.52;;;;;;;;;;4992233;28;20443;-73
2023/10/13 02:52:08;;;;;;;2.88;1.35;;;;;;;;;;4994339;28;20052;-74
2023/10/13 02:54:42;;;;;;;3.22;2.00;;;;;;;;;;4979583;28;20048;-73
2023/10/13 02:57:08;;;;;;;1.67;1.33;;;;;;;;;;4978143;28;20051;-74
2023/10/13 02:59:50;;;;;;;7.43;2.30;;;;;;;;;;4979128;28;20046;-73
2023/10/13 03:02:27;;;;;;;5.70;1.80;;;;;;;;;;4978780;28;20057;-73
2023/10/13 03:05:09;;;;;;;3.97;1.90;;;;;;;;;;4979463;28;20046;-73
2023/10/13 03:07:36;;;;;;;5.15;1.80;;;;;;;;;;4972694;28;20053;-73
2023/10/13 03:10:12;;;;;;;4.25;2.17;;;;;;;;;;4979475;28;20177;-73
2023/10/13 03:12:39;;;;;;;4.68;1.88;;;;;;;;;;4978162;28;20038;-74
2023/10/13 03:17:43;;;;;;;5.50;2.33;;;;;;;;;;4970620;28;20550;-73
2023/10/13 03:20:14;;;;;;;7.40;2.38;;;;;;;;;;4977784;28;20717;-73
2023/10/13 03:22:40;;;;;;;6.22;1.73;;;;;;;;;;4979028;28;20042;-73
2023/10/13 03:25:07;;;;;;;3.63;1.83;;;;;;;;;;4976506;28;20048;-74
2023/10/13 03:27:40;;;;;;;4.18;2.00;;;;;;;;;;4977516;28;20069;-74
2023/10/13 03:30:15;;;;;;;4.57;1.77;;;;;;;;;;4977431;28;20042;-73
2023/10/13 03:33:00;;;;;;;8.55;1.88;;;;;;;;;;4980419;28;20052;-74
2023/10/13 03:35:37;;;;;;;5.15;2.13;;;;;;;;;;4993890;28;20583;-74
2023/10/13 03:38:03;;;;;;;8.57;1.92;;;;;;;;;;4978639;28;20054;-73
2023/10/13 03:43:04;;;;;;;3.28;1.90;;;;;;;;;;4981590;28;20055;-73
2023/10/13 03:45:39;;;;;;;7.05;2.10;;;;;;;;;;4979959;28;20098;-73
2023/10/13 03:51:10;;;;;;;5.70;2.13;;;;;;;;;;4977251;28;20157;-73
2023/10/13 03:53:56;;;;;;;8.85;2.17;;;;;;;;;;4977115;28;20624;-75
2023/10/13 03:56:26;;;;;;;12.00;2.22;;;;;;;;;;4977305;28;20042;-75
2023/10/13 03:59:06;;;;;;;5.43;1.80;;;;;;;;;;4963373;28;20399;-76
2023/10/13 04:15:14;;;;;;;4.53;2.15;;;;;;;;;;4978441;28;20082;-74
2023/10/13 04:17:46;;;;;;;8.35;2.30;;;;;;;;;;4960445;28;20038;-74
2023/10/13 04:38:59;;;;;;;5.38;2.40;;;;;;;;;;4966109;28;20054;-73
2023/10/13 04:41:41;;;;;;;3.75;2.08;;;;;;;;;;4962724;28;20070;-75
2023/10/13 04:54:54;;;;;;;4.85;2.55;;;;;;;;;;4977165;28;20142;-74
2023/10/13 05:44:33;;;;;;;5.88;2.28;;;;;;;;;;4959450;28;20087;-74
2023/10/13 05:47:22;;;;;;;4.45;2.50;;;;;;;;;;4959840;28;20126;-75
2023/10/13 05:49:50;;;;;;;6.30;2.40;;;;;;;;;;4991982;28;20042;-74
2023/10/13 05:52:19;;;;;;;3.80;2.75;;;;;;;;;;4979483;28;20050;-74
2023/10/13 06:30:17;;;;;;;9.02;3.03;;;;;;;;;;4979776;28;20117;-76
2023/10/13 06:32:43;;;;;;;5.38;2.05;;;;;;;;;;4979362;28;20064;-75
2023/10/13 06:35:08;;;;;;;10.32;2.75;;;;;;;;;;4978998;28;20050;-76
2023/10/13 06:37:34;;;;;;;9.82;2.42;;;;;;;;;;4978664;28;20046;-75
2023/10/13 06:40:22;;;;;;;5.60;2.45;;;;;;;;;;4979010;28;20157;-73
2023/10/13 06:42:48;;;;;;;8.00;2.50;;;;;;;;;;4979231;28;20085;-73
2023/10/13 06:45:16;;;;;;;4.47;2.20;;;;;;;;;;4977264;28;20049;-73
2023/10/13 06:47:43;;;;;;;6.60;2.50;;;;;;;;;;4976237;28;20100;-75
2023/10/13 06:50:15;;;;;;;4.88;2.47;;;;;;;;;;4979462;28;20062;-77
2023/10/13 06:52:48;;;;;;;5.45;2.78;;;;;;;;;;4977345;28;20050;-75
2023/10/13 06:55:34;;;;;;;6.38;2.63;;;;;;;;;;4959720;28;20054;-71
2023/10/13 06:58:00;;;;;;;3.22;2.20;;;;;;;;;;4977575;28;20579;-74
2023/10/13 07:00:29;;;;;;;12.05;2.33;;;;;;;;;;4979009;28;20097;-73
2023/10/13 07:03:05;;;;;;;17.75;2.83;;;;;;;;;;4979173;28;20045;-73
2023/10/13 07:05:38;;;;;;;5.53;2.28;;;;;;;;;;4961123;28;20157;-74
2023/10/13 07:08:06;;;;;;;4.15;2.08;;;;;;;;;;4977774;28;20038;-75
2023/10/13 07:10:44;;;;;;;5.30;2.15;;;;;;;;;;4976402;28;20127;-75
2023/10/13 07:13:13;;;;;;;7.03;2.38;;;;;;;;;;4978287;28;20057;-75
2023/10/13 07:15:44;;;;;;;11.45;2.45;;;;;;;;;;4978361;28;20050;-75
2023/10/13 07:18:13;;;;;;;9.57;2.83;;;;;;;;;;4977949;28;20049;-78
2023/10/13 07:20:43;;;;;;;7.38;2.55;;;;;;;;;;4989235;28;20085;-76
2023/10/13 07:23:17;;;;;;;11.80;2.67;;;;;;;;;;4977575;28;20679;-76
2023/10/13 07:25:44;;;;;;;4.70;2.28;;;;;;;;;;4977802;28;21021;-75
2023/10/13 07:28:10;;;;;;;5.82;2.33;;;;;;;;;;4977784;28;20046;-74
2023/10/13 07:31:08;;;;;;;7.13;2.60;;;;;;;;;;4976766;28;20431;-76
2023/10/13 07:33:34;;;;;;;7.35;2.60;;;;;;;;;;4976869;28;20077;-76
2023/10/13 07:36:15;;;;;;;6.82;2.20;;;;;;;;;;4978733;28;20482;-77
2023/10/13 07:38:49;;;;;;;4.32;2.13;;;;;;;;;;4978635;28;20078;-74
2023/10/13 07:41:17;;;;;;;4.63;2.53;;;;;;;;;;4976475;28;20061;-74
2023/10/13 07:43:44;;;;;;;7.45;2.85;;;;;;;;;;4978279;28;20042;-76
2023/10/13 07:46:12;;;;;;;5.35;2.42;;;;;;;;;;4978163;28;20141;-74
2023/10/13 07:48:38;;;;;;;5.28;2.50;;;;;;;;;;4978417;28;20524;-77
2023/10/13 07:51:11;;;;;;;6.97;2.33;;;;;;;;;;4977875;28;20065;-75
2023/10/13 07:53:40;;;;;;;11.95;2.78;;;;;;;;;;4978023;28;20415;-75
2023/10/13 07:56:08;;;;;;;4.30;2.30;;;;;;;;;;4979274;28;20447;-77
2023/10/13 07:58:35;;;;;;;6.50;2.53;;;;;;;;;;4979227;28;20082;-75
2023/10/13 08:01:07;;;;;;;12.25;2.90;;;;;;;;;;4979484;28;20046;-75
2023/10/13 08:03:45;;;;;;;6.88;2.47;;;;;;;;;;4979309;28;20046;-75
2023/10/13 08:08:42;;;;;;;9.95;2.33;;;;;;;;;;4982204;28;20891;-76
2023/10/13 08:11:25;;;;;;;6.30;2.03;;;;;;;;;;4980353;28;20132;-75
2023/10/13 08:13:55;;;;;;;4.50;2.25;;;;;;;;;;4982000;28;20117;-76
2023/10/13 08:16:22;;;;;;;6.47;2.70;;;;;;;;;;4988650;28;20140;-77
2023/10/13 08:18:52;;;;;;;5.28;2.35;;;;;;;;;;4979916;28;20050;-75
2023/10/13 08:21:31;;;;;;;5.80;2.45;;;;;;;;;;4982030;28;20112;-74
2023/10/13 08:23:58;;;;;;;7.53;3.40;;;;;;;;;;4987019;28;20057;-70
2023/10/13 08:34:38;;;;;;;6.88;2.47;;;;;;;;;;4982554;28;20056;-75
2023/10/13 08:48:13;;;;;;;3.85;2.13;;;;;;;;;;4971850;28;20062;-73
2023/10/13 08:53:47;;;;;;;8.80;2.53;;;;;;;;;;4962070;28;20097;-73
2023/10/13 09:01:48;;;;;;;4.45;2.20;;;;;;;;;;4959770;28;20038;-75
2023/10/13 09:07:00;;;;;;;5.85;1.80;;;;;;;;;;4962130;28;20050;-76
2023/10/13 09:12:25;;;;;;;4.38;2.20;;;;;;;;;;4981198;28;20149;-76
2023/10/13 09:15:05;;;;;;;9.23;2.65;;;;;;;;;;4982559;28;20049;-75
2023/10/13 09:17:34;;;;;;;5.47;2.47;;;;;;;;;;4980813;28;20419;-76
2023/10/13 09:22:54;;;;;;;6.93;2.30;;;;;;;;;;4980734;28;20058;-75
2023/10/13 09:25:22;;;;;;;6.03;2.22;;;;;;;;;;4948661;28;20081;-76
2023/10/13 09:27:53;;;;;;;5.53;2.13;;;;;;;;;;4982239;28;20120;-75
2023/10/13 09:30:22;;;;;;;5.50;3.97;;;;;;;;;;4981294;28;20132;-76
2023/10/13 09:33:01;;;;;;;4.47;2.15;;;;;;;;;;4980326;28;20050;-75
2023/10/13 09:35:28;;;;;;;4.47;2.35;;;;;;;;;;4995393;28;21140;-76
2023/10/13 09:37:57;;;;;;;8.55;2.10;;;;;;;;;;4981165;28;20054;-75
2023/10/13 09:42:59;;;;;;;5.82;2.20;;;;;;;;;;4980283;28;20066;-76
2023/10/13 09:45:36;;;;;;;8.32;2.42;;;;;;;;;;4979918;28;21606;-76
2023/10/13 09:48:16;;;;;;;5.00;2.33;;;;;;;;;;4967743;28;20046;-74
2023/10/13 09:50:45;;;;;;;4.32;2.30;;;;;;;;;;4979529;28;20418;-76
2023/10/13 09:53:13;;;;;;;8.15;2.30;;;;;;;;;;4978906;28;20137;-74
2023/10/13 09:55:48;;;;;;;6.50;2.25;;;;;;;;;;4977594;28;20038;-77
2023/10/13 09:58:18;;;;;;;8.00;2.20;;;;;;;;;;4970660;28;20133;-75
2023/10/13 10:01:10;;;;;;;8.40;2.10;;;;;;;;;;4979800;28;20061;-73
2023/10/13 10:03:50;;;;;;;;;;;;;;;;;;4980813;28;20050;-74
2023/10/13 10:06:39;;;;;;;4.40;2.20;;;;;;;;;;4968527;28;19922;-74
2023/10/13 10:09:12;;;;;;;6.80;2.42;;;;;;;;;;4980490;28;20054;-74
2023/10/13 10:12:00;;;;;;;6.68;1.92;;;;;;;;;;4963084;28;20058;-76
2023/10/13 10:14:46;;;;;;;3.88;2.03;;;;;;;;;;4980112;28;20046;-72
2023/10/13 10:17:11;;;;;;;5.20;2.10;;;;;;;;;;4978142;28;20415;-75
2023/10/13 10:19:54;;;;;;;4.82;2.03;;;;;;;;;;4978602;28;20046;-75
2023/10/13 10:22:33;;;;;;;6.43;2.10;;;;;;;;;;4978686;28;20061;-74
2023/10/13 10:25:25;;;;;;;7.85;1.85;;;;;;;;;;4979783;28;20081;-75
2023/10/13 10:27:58;;;;;;;4.15;2.00;;;;;;;;;;4984336;28;20086;-74
2023/10/13 10:30:27;;;;;;;6.07;2.00;;;;;;;;;;4960455;28;20109;-73
2023/10/13 10:33:00;;;;;;;10.65;2.47;;;;;;;;;;4961775;28;20046;-74
2023/10/13 10:35:29;;;;;;;2.55;1.73;;;;;;;;;;4958972;28;21102;-74
2023/10/13 10:38:32;;;;;;;3.75;2.10;;;;;;;;;;4959210;28;20058;-74
2023/10/13 10:41:04;;;;;;;5.00;2.17;;;;;;;;;;4959120;28;20129;-76
2023/10/13 10:43:42;;;;;;;6.10;1.75;;;;;;;;;;4959957;28;20046;-73
2023/10/13 10:46:27;;;;;;;5.40;2.05;;;;;;;;;;4960122;28;20055;-75
2023/10/13 10:49:00;;;;;;;5.53;1.90;;;;;;;;;;4959230;28;20047;-76
2023/10/13 10:51:31;;;;;;;3.35;1.73;;;;;;;;;;4959577;28;20043;-76
2023/10/13 10:53:57;;;;;;;7.72;1.80;;;;;;;;;;4960188;28;20480;-74
2023/10/13 10:59:00;;;;;;;3.58;1.80;;;;;;;;;;4958195;28;20141;-73
2023/10/13 11:01:46;;;;;;;4.88;2.00;;;;;;;;;;4958791;28;20129;-73
2023/10/13 11:04:14;;;;;;;6.00;2.40;;;;;;;;;;4960570;28;20139;-75
2023/10/13 11:06:55;;;;;;;9.07;2.30;;;;;;;;;;4960340;28;20061;-75
2023/10/13 11:15:22;;;;;;;4.60;2.50;;;;;;;;;;4945863;28;20498;-73
2023/10/13 11:17:54;;;;;;;5.07;1.90;;;;;;;;;;4958192;28;20061;-74
2023/10/13 11:20:43;;;;;;;5.22;1.83;;;;;;;;;;4959861;28;20051;-73
2023/10/13 11:23:15;;;;;;;5.32;2.22;;;;;;;;;;4958812;28;20057;-74
2023/10/13 11:25:43;;;;;;;5.78;1.95;;;;;;;;;;4960712;28;20515;-76
2023/10/13 11:28:28;;;;;;;4.10;2.05;;;;;;;;;;4962644;28;20485;-75
2023/10/13 11:31:10;;;;;;;4.43;1.80;;;;;;;;;;4960285;28;20042;-75
2023/10/13 11:33:36;;;;;;;2.85;1.73;;;;;;;;;;4959275;28;20078;-75
2023/10/13 11:36:03;;;;;;;4.88;1.88;;;;;;;;;;4960005;28;20131;-75
2023/10/13 11:41:11;;;;;;;4.60;1.90;;;;;;;;;;4956800;28;20059;-77
2023/10/13 11:44:13;;;;;;;7.70;1.92;;;;;;;;;;4954002;28;20050;-75
2023/10/13 11:46:55;;;;;;;3.67;1.60;;;;;;;;;;4977974;28;20074;-75
2023/10/13 11:52:01;;;;;;;8.98;1.90;;;;;;;;;;4978787;28;20469;-76
2023/10/13 11:54:27;;;;;;;6.28;1.77;;;;;;;;;;4978426;28;20132;-75
2023/10/13 11:56:53;;;;;;;6.05;1.98;;;;;;;;;;4977788;28;20407;-75
2023/10/13 11:59:18;;;;;;;6.35;1.75;;;;;;;;;;4978160;28;20053;-75
2023/10/13 12:07:21;;;;;;;4.28;2.20;;;;;;;;;;4977327;28;20105;-76
2023/10/13 12:12:27;;;;;;;6.35;1.58;;;;;;;;;;4977833;28;20053;-76
2023/10/13 12:14:56;;;;;;;2.15;1.63;;;;;;;;;;4977596;28;20050;-75
2023/10/13 12:17:28;;;;;;;6.38;1.90;;;;;;;;;;4976217;28;20042;-76
2023/10/13 12:19:57;;;;;;;2.13;1.50;;;;;;;;;;4978125;28;20100;-75
2023/10/13 12:22:28;;;;;;;5.55;2.03;;;;;;;;;;4977137;28;20046;-77
2023/10/13 12:24:55;;;;;;;7.28;1.95;;;;;;;;;;4977888;28;20053;-75
2023/10/13 12:27:23;;;;;;;5.20;1.70;;;;;;;;;;4975473;28;20034;-74
2023/10/13 12:29:51;;;;;;;9.38;2.00;;;;;;;;;;4975843;28;20486;-75
2023/10/13 12:32:23;;;;;;;2.65;1.73;;;;;;;;;;4978179;28;20129;-75
2023/10/13 12:53:55;;;;;;;5.65;1.50;;;;;;;;;;4982385;28;20149;-76
2023/10/13 12:56:30;;;;;;;3.97;1.55;;;;;;;;;;4979436;28;20615;-76
2023/10/13 12:58:55;;;;;;;2.72;1.40;;;;;;;;;;4981279;28;20092;-75
2023/10/13 13:01:22;;;;;;;7.97;1.23;;;;;;;;;;4979682;28;20050;-76
2023/10/13 13:03:55;;;;;;;4.88;1.55;;;;;;;;;;4980837;28;20039;-75
2023/10/13 13:06:25;;;;;;;6.18;1.77;;;;;;;;;;4972655;28;20054;-76
2023/10/13 13:08:54;;;;;;;8.30;1.80;;;;;;;;;;4977860;28;20046;-74
2023/10/13 13:11:20;;;;;;;3.42;1.50;;;;;;;;;;4975649;28;20529;-76
2023/10/13 13:13:46;;;;;;;3.35;1.70;;;;;;;;;;4961758;28;20134;-75
2023/10/13 13:16:23;;;;;;;8.20;1.77;;;;;;;;;;4978710;28;20054;-74
2023/10/13 13:18:49;;;;;;;6.05;1.42;;;;;;;;;;4978012;28;20057;-75
2023/10/13 13:21:23;;;;;;;4.10;1.45;;;;;;;;;;4978218;28;20047;-76
2023/10/13 13:23:49;;;;;;;4.85;1.40;;;;;;;;;;4979551;28;20050;-76
2023/10/13 13:26:18;;;;;;;3.33;1.27;;;;;;;;;;4978140;28;20080;-77
2023/10/13 13:28:50;;;;;;;2.97;1.52;;;;;;;;;;4979630;28;20048;-77
2023/10/13 13:31:25;;;;;;;5.63;1.48;;;;;;;;;;4978834;28;20551;-76
2023/10/13 13:33:50;;;;;;;4.85;1.65;;;;;;;;;;4965743;28;20046;-76
2023/10/13 13:36:16;;;;;;;4.13;1.50;;;;;;;;;;4979142;28;20475;-76
2023/10/13 13:38:46;;;;;;;5.13;1.98;;;;;;;;;;4977653;28;20034;-76
2023/10/13 13:41:18;;;;;;;4.35;1.27;;;;;;;;;;4978142;28;20065;-76
2023/10/13 13:44:01;;;;;;;2.33;1.33;;;;;;;;;;4979541;28;20049;-76
2023/10/13 13:46:32;;;;;;;7.40;1.65;;;;;;;;;;4977865;28;20047;-74
2023/10/13 13:48:59;;;;;;;7.53;1.75;;;;;;;;;;4961881;28;20121;-75
2023/10/13 13:51:29;;;;;;;3.85;1.80;;;;;;;;;;4976152;28;20415;-73
2023/10/13 13:53:55;;;;;;;5.43;1.55;;;;;;;;;;4979600;28;20061;-74
2023/10/13 13:56:25;;;;;;;13.73;1.90;;;;;;;;;;4978450;28;20046;-74
2023/10/13 13:58:51;;;;;;;7.97;1.90;;;;;;;;;;4973281;28;20050;-76
2023/10/13 14:01:19;;;;;;;7.20;1.75;;;;;;;;;;4977098;28;20669;-74
2023/10/13 14:03:46;;;;;;;6.72;1.65;;;;;;;;;;4976567;28;20121;-75
2023/10/13 14:06:28;;;;;;;3.30;1.50;;;;;;;;;;4978077;28;20596;-73
2023/10/13 14:09:44;;;;;;;5.60;1.88;;;;;;;;;;4978054;28;20049;-76
2023/10/13 14:14:28;;;;;;;3.80;1.65;;;;;;;;;;4979290;28;20046;-77
2023/10/13 14:17:02;;;;;;;4.68;1.60;;;;;;;;;;4976486;28;20049;-76
2023/10/13 14:19:27;;;;;;;5.15;1.70;;;;;;;;;;4974163;28;20069;-75
2023/10/13 14:21:56;;;;;;;5.75;1.80;;;;;;;;;;4979358;28;20058;-73
2023/10/13 14:24:33;;;;;;;5.70;2.33;;;;;;;;;;4979419;28;20045;-74
2023/10/13 14:27:09;;;;;;;7.75;1.92;;;;;;;;;;4991390;28;20038;-73
2023/10/13 14:29:40;;;;;;;7.78;1.70;;;;;;;;;;4981198;28;20058;-74
2023/10/13 14:32:13;;;;;;;7.32;2.03;;;;;;;;;;4977480;28;20046;-74
2023/10/13 14:34:40;;;;;;;4.47;1.88;;;;;;;;;;4976489;28;20042;-75
2023/10/13 14:37:06;;;;;;;5.55;1.58;;;;;;;;;;4975714;28;20073;-73
2023/10/13 14:39:34;;;;;;;5.55;1.90;;;;;;;;;;4976066;28;20056;-74
2023/10/13 14:42:02;;;;;;;7.55;1.75;;;;;;;;;;4979373;28;20045;-72
2023/10/13 14:44:28;;;;;;;13.80;2.25;;;;;;;;;;4977797;28;20104;-72
2023/10/13 14:46:54;;;;;;;8.25;1.98;;;;;;;;;;4973557;28;20042;-72
2023/10/13 14:49:23;;;;;;;5.00;1.65;;;;;;;;;;4975082;28;20030;-72
2023/10/13 14:51:49;;;;;;;6.63;1.73;;;;;;;;;;4975939;28;20034;-72
2023/10/13 14:54:15;;;;;;;6.72;1.85;;;;;;;;;;4977731;28;20054;-72
2023/10/13 14:56:44;;;;;;;7.25;2.30;;;;;;;;;;4976500;28;20042;-72
2023/10/13 14:59:16;;;;;;;9.75;2.15;;;;;;;;;;4975711;28;20936;-72
2023/10/13 15:01:43;;;;;;;4.38;1.80;;;;;;;;;;4988055;28;20042;-72
2023/10/13 15:04:08;;;;;;;8.82;1.90;;;;;;;;;;4977758;28;20050;-72
2023/10/13 15:06:34;;;;;;;5.88;2.20;;;;;;;;;;4977927;28;20046;-72
2023/10/13 15:09:00;;;;;;;3.80;1.85;;;;;;;;;;4974516;28;20085;-73
2023/10/13 15:11:35;;;;;;;3.60;1.75;;;;;;;;;;4974907;28;20103;-74
2023/10/13 15:14:02;;;;;;;6.95;2.10;;;;;;;;;;4977116;28;20057;-74
2023/10/13 15:16:27;;;;;;;6.40;1.92;;;;;;;;;;4972721;28;20049;-74
2023/10/13 15:18:54;;;;;;;6.15;1.85;;;;;;;;;;4975034;28;20054;-74
2023/10/13 15:21:24;;;;;;;4.20;1.80;;;;;;;;;;4976244;28;20077;-74
2023/10/13 15:23:51;;;;;;;2.83;1.60;;;;;;;;;;4976329;28;20092;-74
2023/10/13 15:26:17;;;;;;;5.60;1.73;;;;;;;;;;4976829;28;20046;-71
2023/10/13 15:28:48;;;;;;;8.63;1.77;;;;;;;;;;4975428;28;20097;-73
2023/10/13 15:31:37;;;;;;;4.95;2.25;;;;;;;;;;4976405;28;20255;-73
2023/10/13 15:34:06;;;;;;;5.55;1.90;;;;;;;;;;4977874;28;20073;-73
2023/10/13 15:36:34;;;;;;;5.28;1.85;;;;;;;;;;4977748;28;20428;-73
2023/10/13 15:39:00;;;;;;;3.95;1.70;;;;;;;;;;4976992;28;20058;-73
2023/10/13 15:41:27;;;;;;;3.08;1.77;;;;;;;;;;4978337;28;20061;-73
2023/10/13 15:43:54;;;;;;;3.85;1.50;;;;;;;;;;4978968;28;20397;-73
2023/10/13 15:46:23;;;;;;;5.45;2.00;;;;;;;;;;4977463;28;20321;-73
2023/10/13 15:48:50;;;;;;;12.68;2.10;;;;;;;;;;4978125;28;20050;-74
2023/10/13 15:51:16;;;;;;;4.55;1.83;;;;;;;;;;4975847;28;20046;-73
2023/10/13 15:53:43;;;;;;;4.65;2.05;;;;;;;;;;4978205;28;20042;-73
2023/10/13 15:56:11;;;;;;;8.00;2.13;;;;;;;;;;4978915;28;20058;-73
2023/10/13 15:59:06;;;;;;;9.52;2.40;;;;;;;;;;4978142;28;20054;-71
2023/10/13 16:01:33;;;;;;;6.43;2.30;;;;;;;;;;4977819;28;20048;-71
2023/10/13 16:03:59;;;;;;;7.18;2.03;;;;;;;;;;4977275;28;20470;-72
2023/10/13 16:06:25;;;;;;;8.02;2.08;;;;;;;;;;4977648;28;20466;-72
2023/10/13 16:08:51;;;;;;;6.75;2.33;;;;;;;;;;4977676;28;20046;-73
2023/10/13 16:11:17;;;;;;;4.05;1.65;;;;;;;;;;4976595;28;20140;-71
2023/10/13 16:13:51;;;;;;;5.68;1.70;;;;;;;;;;4976794;28;20050;-71
2023/10/13 16:16:24;;;;;;;5.80;2.35;;;;;;;;;;4977853;28;20537;-72
2023/10/13 16:18:51;;;;;;;4.10;2.05;;;;;;;;;;4976788;28;20046;-72
2023/10/13 16:21:17;;;;;;;4.78;2.67;;;;;;;;;;4977512;28;20066;-71
2023/10/13 16:23:46;;;;;;;8.82;3.78;;;;;;;;;;4977756;28;20526;-71
2023/10/13 16:26:11;;;;;;;6.63;3.60;;;;;;;;;;4980239;28;20077;-74
2023/10/13 16:28:40;;;;;;;7.40;3.22;;;;;;;;;;4981858;28;20508;-73
2023/10/13 16:31:09;;;;;;;8.80;4.18;;;;;;;;;;4981022;28;20056;-73
2023/10/13 16:33:41;;;;;;;10.23;6.50;;;;;;;;;;4980503;28;20499;-74
2023/10/13 16:36:08;;;;;;;8.95;5.65;;;;;;;;;;4981892;28;20062;-73
2023/10/13 16:38:37;;;;;;;9.27;4.63;;;;;;;;;;4978841;28;20047;-72
2023/10/13 16:41:08;;;;;;;11.07;4.55;;;;;;;;;;4979225;28;20556;-71
2023/10/13 16:43:35;;;;;;;8.67;4.47;;;;;;;;;;4981149;28;20136;-71
2023/10/13 16:46:07;;;;;;;9.13;4.85;;;;;;;;;;4981554;28;20056;-71
2023/10/13 16:48:33;;;;;;;8.15;5.28;;;;;;;;;;4981435;28;20096;-71
2023/10/13 16:50:59;;;;;;;7.88;3.83;;;;;;;;;;4981642;28;20038;-71
2023/10/13 16:53:25;;;;;;;11.32;4.80;;;;;;;;;;4980437;28;20427;-71
2023/10/13 16:55:51;;;;;;;8.88;4.60;;;;;;;;;;4981853;28;20038;-72
2023/10/13 16:58:16;;;;;;;7.72;3.58;;;;;;;;;;4976045;28;20116;-71
2023/10/13 17:00:51;;;;;;;7.30;3.55;;;;;;;;;;4977702;28;20866;-72
2023/10/13 17:03:24;;;;;;;5.82;3.47;;;;;;;;;;4967296;28;20070;-71
2023/10/13 17:05:50;;;;;;;6.07;4.00;;;;;;;;;;4979931;28;20047;-71
2023/10/13 17:08:16;;;;;;;7.10;4.15;;;;;;;;;;4977970;28;20399;-72
2023/10/13 17:10:41;;;;;;;14.85;6.03;;;;;;;;;;4978093;28;20750;-71
2023/10/13 17:13:07;;;;;;;12.48;8.25;;;;;;;;;;4976691;28;20042;-71
2023/10/13 17:15:35;;;;;;;9.63;7.03;;;;;;;;;;4978093;28;20128;-71
2023/10/13 17:18:05;;;;;;;9.25;5.10;;;;;;;;;;4979799;28;20514;-72
2023/10/13 17:20:39;;;;;;;7.85;5.07;;;;;;;;;;4978537;28;20522;-71
2023/10/13 17:23:08;;;;;;;16.55;5.10;;;;;;;;;;4977296;28;20058;-71
2023/10/13 17:25:39;;;;;;;12.63;6.32;;;;;;;;;;4977717;28;20058;-72
2023/10/13 17:28:12;;;;;;;9.90;3.97;;;;;;;;;;4979615;28;20559;-72
2023/10/13 17:30:43;;;;;;;7.57;3.55;;;;;;;;;;4979244;28;20053;-71
2023/10/13 17:33:11;;;;;;;10.63;4.10;;;;;;;;;;4980057;28;20304;-72
2023/10/13 17:35:40;;;;;;;12.98;4.15;;;;;;;;;;4975090;28;20050;-72
2023/10/13 17:38:05;;;;;;;7.70;3.67;;;;;;;;;;4976719;28;20073;-73
2023/10/13 17:40:33;;;;;;;10.75;4.22;;;;;;;;;;4975785;28;20601;-72
2023/10/13 17:42:59;;;;;;;17.02;4.82;;;;;;;;;;4979166;28;20042;-72
2023/10/13 17:45:24;;;;;;;11.82;3.83;;;;;;;;;;4977184;28;20050;-72
2023/10/13 17:47:51;;;;;;;8.52;4.63;;;;;;;;;;4978509;28;20050;-71
2023/10/13 17:50:17;;;;;;;7.85;3.58;;;;;;;;;;4980849;28;20493;-72
2023/10/13 17:52:44;;;;;;;8.02;4.00;;;;;;;;;;4981110;28;20499;-73
2023/10/13 17:55:10;;;;;;;7.70;3.47;;;;;;;;;;4981556;28;20141;-72
2023/10/13 17:57:36;;;;;;;9.38;3.92;;;;;;;;;;4979568;28;20052;-72
2023/10/13 18:00:10;;;;;;;7.90;3.60;;;;;;;;;;4978102;28;20046;-73
2023/10/13 18:02:42;;;;;;;7.30;3.28;;;;;;;;;;4980820;28;20057;-73
2023/10/13 18:05:11;;;;;;;8.63;3.40;;;;;;;;;;4980092;28;20114;-73
2023/10/13 18:07:40;;;;;;;9.68;2.92;;;;;;;;;;4979595;28;20081;-73
2023/10/13 18:10:09;;;;;;;6.47;2.75;;;;;;;;;;4979387;28;20241;-72
2023/10/13 18:12:36;;;;;;;8.38;4.00;;;;;;;;;;4979939;28;20089;-73
2023/10/13 18:15:05;;;;;;;6.35;3.03;;;;;;;;;;4980210;28;20046;-72
2023/10/13 18:17:32;;;;;;;11.57;3.90;;;;;;;;;;4973149;28;20799;-73
2023/10/13 18:20:02;;;;;;;6.72;3.47;;;;;;;;;;4976415;28;20085;-72
2023/10/13 18:22:28;;;;;;;7.68;3.40;;;;;;;;;;4976900;28;20792;-73
2023/10/13 18:24:53;;;;;;;7.07;3.15;;;;;;;;;;4976403;28;20114;-73
2023/10/13 18:27:19;;;;;;;12.10;4.95;;;;;;;;;;4976925;28;20042;-73
2023/10/13 18:29:46;;;;;;;9.80;4.97;;;;;;;;;;4976740;28;20072;-73
2023/10/13 18:32:16;;;;;;;9.45;3.83;;;;;;;;;;4976813;28;20046;-73
2023/10/13 18:34:47;;;;;;;8.52;3.65;;;;;;;;;;4977664;28;20082;-73
2023/10/13 18:37:13;;;;;;;6.72;3.40;;;;;;;;;;4977039;28;20050;-73
2023/10/13 18:39:40;;;;;;;7.25;4.35;;;;;;;;;;4976883;28;20521;-73
2023/10/13 18:42:06;;;;;;;6.53;4.22;;;;;;;;;;4976770;28;20545;-73
2023/10/13 18:44:33;;;;;;;8.77;3.70;;;;;;;;;;4977503;28;20046;-73
2023/10/13 18:47:01;;;;;;;6.22;3.35;;;;;;;;;;4977152;28;20112;-72
2023/10/13 18:49:27;;;;;;;6.90;2.90;;;;;;;;;;4976637;28;20046;-73
2023/10/13 18:51:54;;;;;;;5.43;2.97;;;;;;;;;;4975936;28;20046;-72